Time;durP1;ratioP1;P1;durP2;ratioP2;P2;SDS_P1;SDS_P2;PMS_P1;PMS_P2;Temp;Humidity;BMP_temperature;BMP_pressure;BME280_temperature;BME280_humidity;BME280_pressure;Samples;Min_cycle;Max_cycle;Signal;HPM_P1;HPM_P2
2021/12/18 00:00:57;;;;;;;4.57;2.60;;;;;;;22.33;39.86;95205.34;5065784;28;20032;-55
2021/12/18 00:03:22;;;;;;;4.00;2.80;;;;;;;22.30;39.95;95206.34;5065275;28;20040;-54
2021/12/18 00:05:48;;;;;;;3.10;2.30;;;;;;;22.28;39.87;95214.25;5065488;28;20727;-54
2021/12/18 00:08:13;;;;;;;3.28;2.78;;;;;;;22.25;40.09;95198.91;5065164;28;20498;-55
2021/12/18 00:10:38;;;;;;;3.78;2.67;;;;;;;22.22;39.83;95205.34;5064387;28;20438;-54
2021/12/18 00:13:04;;;;;;;3.88;2.60;;;;;;;22.22;39.87;95205.34;5066174;28;20039;-55
2021/12/18 00:15:29;;;;;;;3.33;2.40;;;;;;;22.20;39.79;95207.06;5066316;28;20024;-58
2021/12/18 00:17:55;;;;;;;3.25;2.40;;;;;;;22.20;39.94;95207.81;5066078;28;20398;-54
2021/12/18 00:20:20;;;;;;;3.28;2.60;;;;;;;22.17;39.98;95208.81;5065762;28;20825;-55
2021/12/18 00:22:46;;;;;;;3.95;2.67;;;;;;;22.16;39.71;95204.59;5065958;28;20800;-55
2021/12/18 00:25:11;;;;;;;3.35;2.47;;;;;;;22.11;40.17;95199.91;5066268;28;20029;-55
2021/12/18 00:27:37;;;;;;;3.78;2.53;;;;;;;22.11;40.01;95210.78;5064706;28;20037;-55
2021/12/18 00:30:06;;;;;;;3.35;2.33;;;;;;;22.10;40.05;95209.28;5065220;28;20021;-55
2021/12/18 00:32:32;;;;;;;3.95;2.35;;;;;;;22.08;39.95;95209.06;5065684;28;20116;-54
2021/12/18 00:34:57;;;;;;;3.58;2.38;;;;;;;22.07;40.10;95210.28;5066031;28;20657;-55
2021/12/18 00:37:23;;;;;;;3.45;2.65;;;;;;;22.07;40.04;95204.84;5065827;28;20024;-55
2021/12/18 00:39:59;;;;;;;4.10;2.40;;;;;;;22.06;40.17;95211.53;5065861;28;20094;-55
2021/12/18 00:45:14;;;;;;;3.53;2.50;;;;;;;22.02;40.14;95202.88;5065796;28;20510;-55
2021/12/18 00:47:40;;;;;;;3.47;2.30;;;;;;;22.00;40.09;95199.91;5065469;28;20029;-54
2021/12/18 00:50:06;;;;;;;3.20;2.40;;;;;;;21.99;40.18;95201.16;5064985;28;20040;-56
2021/12/18 00:52:32;;;;;;;2.85;2.47;;;;;;;21.98;40.07;95207.81;5064907;28;20044;-54
2021/12/18 00:54:58;;;;;;;3.45;2.50;;;;;;;21.82;40.18;95185.34;5065202;28;20111;-55
2021/12/18 00:57:23;;;;;;;3.38;2.70;;;;;;;21.95;40.15;95208.81;5080560;28;20079;-54
2021/12/18 00:59:51;;;;;;;2.72;2.25;;;;;;;21.93;40.54;95211.28;5063535;28;20024;-53
2021/12/18 01:02:17;;;;;;;4.97;2.67;;;;;;;21.94;40.11;95214.72;5064863;28;20112;-54
2021/12/18 01:04:42;;;;;;;3.63;2.42;;;;;;;21.92;40.04;95215.22;5065205;28;20054;-54
2021/12/18 01:07:08;;;;;;;3.78;2.28;;;;;;;21.90;40.26;95214.25;5065473;28;20037;-54
2021/12/18 01:10:01;;;;;;;4.00;2.70;;;;;;;21.89;40.09;95220.19;5065043;28;20029;-53
2021/12/18 01:12:34;;;;;;;3.58;2.20;;;;;;;21.89;40.47;95220.19;5064835;28;20039;-53
2021/12/18 01:22:47;;;;;;;3.75;2.58;;;;;;;21.82;40.30;95204.34;5064939;28;20039;-55
2021/12/18 01:25:13;;;;;;;3.63;2.47;;;;;;;21.78;40.27;95209.28;5065012;28;20517;-54
2021/12/18 01:27:39;;;;;;;3.03;2.60;;;;;;;21.81;40.21;95202.88;5064759;28;20032;-55
2021/12/18 01:30:05;;;;;;;3.55;2.22;;;;;;;21.81;40.29;95202.88;5064638;28;20557;-53
2021/12/18 01:32:31;;;;;;;3.58;2.45;;;;;;;21.79;40.25;95210.78;5064609;28;20129;-54
2021/12/18 01:34:56;;;;;;;3.38;2.58;;;;;;;21.78;40.26;95206.56;5064670;28;20480;-53
2021/12/18 01:37:22;;;;;;;2.88;2.35;;;;;;;21.77;40.36;95207.81;5064759;28;20506;-54
2021/12/18 01:39:48;;;;;;;3.63;2.30;;;;;;;21.76;40.27;95219.94;5064669;28;20461;-53
2021/12/18 01:52:44;;;;;;;3.67;2.28;;;;;;;21.73;40.21;95207.31;5049345;28;20091;-59
2021/12/18 01:55:09;;;;;;;3.97;2.70;;;;;;;21.71;40.25;95204.38;5064236;28;20041;-54
2021/12/18 01:57:35;;;;;;;3.38;2.28;;;;;;;21.69;40.46;95202.13;5064357;28;20033;-53
2021/12/18 02:00:01;;;;;;;3.03;2.22;;;;;;;21.70;40.52;95197.44;5063931;28;20037;-53
2021/12/18 02:02:26;;;;;;;3.55;2.20;;;;;;;21.68;40.04;95199.91;5062905;28;20031;-54
2021/12/18 02:04:52;;;;;;;3.53;2.45;;;;;;;21.67;40.38;95199.19;5063431;28;20024;-55
2021/12/18 02:07:17;;;;;;;3.50;2.38;;;;;;;21.67;40.36;95193.00;5063445;28;20032;-53
2021/12/18 02:12:19;;;;;;;3.13;2.20;;;;;;;21.66;40.37;95207.81;5064095;28;20032;-53
2021/12/18 02:22:47;;;;;;;3.17;2.40;;;;;;;21.62;40.34;95196.44;5064347;28;20074;-55
2021/12/18 02:25:13;;;;;;;3.42;2.55;;;;;;;21.62;40.24;95201.88;5065651;28;20637;-53
2021/12/18 02:27:39;;;;;;;3.08;2.10;;;;;;;21.55;40.36;95180.63;5068083;28;20028;-55
2021/12/18 02:30:05;;;;;;;2.88;2.22;;;;;;;21.61;40.30;95194.97;5068094;28;20048;-53
2021/12/18 02:32:30;;;;;;;3.38;2.35;;;;;;;21.61;40.32;95194.97;5067558;28;20058;-59
2021/12/18 02:35:02;;;;;;;3.08;2.30;;;;;;;21.60;40.40;95193.50;5068276;28;20075;-55
2021/12/18 02:37:29;;;;;;;3.30;2.13;;;;;;;21.57;40.34;95194.47;5068418;28;20043;-54
2021/12/18 02:42:34;;;;;;;3.35;2.42;;;;;;;21.56;40.28;95203.84;5051514;28;20036;-55
2021/12/18 02:45:01;;;;;;;3.00;2.33;;;;;;;21.55;40.16;95196.94;5067825;28;20040;-53
2021/12/18 02:47:27;;;;;;;2.80;2.25;;;;;;;21.55;40.40;95202.34;5067829;28;20036;-54
2021/12/18 02:49:52;;;;;;;2.80;2.00;;;;;;;21.55;40.38;95207.78;5068266;28;20028;-56
2021/12/18 02:52:18;;;;;;;3.40;2.45;;;;;;;21.54;40.31;95206.34;5068688;28;20036;-55
2021/12/18 02:54:44;;;;;;;3.58;2.47;;;;;;;21.53;40.46;95207.56;5067893;28;20487;-53
2021/12/18 02:57:10;;;;;;;3.60;2.50;;;;;;;21.52;40.31;95208.78;5071314;28;20039;-55
2021/12/18 02:59:49;;;;;;;2.47;2.10;;;;;;;21.54;40.55;95225.34;5073785;28;20042;-53
2021/12/18 03:02:15;;;;;;;3.40;2.20;;;;;;;21.51;40.40;95218.19;5071890;28;20150;-54
2021/12/18 03:04:43;;;;;;;3.50;2.10;;;;;;;21.51;40.27;95207.31;5071754;28;20065;-53
2021/12/18 03:07:11;;;;;;;2.47;1.83;;;;;;;21.51;40.39;95212.75;5068940;28;20121;-54
2021/12/18 03:26:03;;;;;;;3.00;2.10;;;;;;;21.45;40.23;95225.56;5070545;28;20040;-55
2021/12/18 03:28:29;;;;;;;2.70;2.10;;;;;;;21.45;40.30;95223.59;5069979;28;20028;-55
2021/12/18 03:30:55;;;;;;;2.72;2.03;;;;;;;21.45;40.36;95225.56;5071196;28;20111;-55
2021/12/18 03:33:21;;;;;;;2.58;2.00;;;;;;;21.45;40.15;95230.97;5075661;28;20092;-57
2021/12/18 03:35:47;;;;;;;2.58;2.00;;;;;;;21.43;40.29;95228.75;5071617;28;20414;-55
2021/12/18 03:38:12;;;;;;;3.53;2.50;;;;;;;21.45;40.39;95236.41;5065574;28;20029;-55
2021/12/18 03:40:38;;;;;;;4.25;2.22;;;;;;;21.43;40.38;95238.88;5067299;28;20475;-56
2021/12/18 03:43:03;;;;;;;2.72;1.90;;;;;;;21.42;40.37;95254.44;5067097;28;20033;-54
2021/12/18 03:45:29;;;;;;;3.25;2.03;;;;;;;21.44;40.22;95251.22;5067071;28;20025;-54
2021/12/18 03:47:54;;;;;;;2.47;1.92;;;;;;;21.43;40.27;95249.72;5066690;28;20029;-55
2021/12/18 03:50:20;;;;;;;2.80;2.13;;;;;;;21.41;40.30;95257.63;5066568;28;20024;-55
2021/12/18 03:52:45;;;;;;;2.92;2.08;;;;;;;21.40;40.26;95250.72;5066874;28;20051;-54
2021/12/18 03:55:11;;;;;;;3.40;2.28;;;;;;;21.38;40.37;95253.19;5066668;28;20024;-58
2021/12/18 03:57:36;;;;;;;3.17;2.42;;;;;;;21.39;40.21;95249.25;5067136;28;20141;-57
2021/12/18 04:00:06;;;;;;;3.25;2.33;;;;;;;21.38;40.26;95253.19;5066498;28;20040;-58
2021/12/18 04:02:31;;;;;;;;;;;;;;;21.41;40.46;95260.34;5065779;28;20064;-58
2021/12/18 04:04:57;;;;;;;4.10;2.90;;;;;;;21.35;40.25;95254.16;5066563;28;20348;-55
2021/12/18 04:07:22;;;;;;;3.42;2.40;;;;;;;21.35;40.32;95248.72;5065440;28;20330;-55
2021/12/18 04:09:48;;;;;;;2.63;2.25;;;;;;;21.34;40.21;95236.38;5066384;28;20036;-54
2021/12/18 04:12:14;;;;;;;2.70;2.03;;;;;;;21.34;40.38;95236.38;5066887;28;20115;-55
2021/12/18 04:14:40;;;;;;;3.03;2.10;;;;;;;21.33;40.30;95243.06;5066547;28;20533;-54
2021/12/18 04:17:05;;;;;;;3.22;2.20;;;;;;;21.29;40.24;95239.81;5066270;28;20051;-54
2021/12/18 04:19:31;;;;;;;3.00;2.00;;;;;;;21.32;40.38;95249.72;5064747;28;20032;-53
2021/12/18 04:21:56;;;;;;;3.55;2.35;;;;;;;21.32;40.32;95247.00;5065990;28;20483;-55
2021/12/18 04:24:22;;;;;;;2.55;1.75;;;;;;;21.32;40.48;95248.97;5065812;28;20036;-55
2021/12/18 04:26:48;;;;;;;3.00;1.98;;;;;;;21.31;40.31;95253.66;5064353;28;20040;-55
2021/12/18 04:29:13;;;;;;;3.05;2.30;;;;;;;21.29;40.25;95258.84;5065477;28;20093;-53
2021/12/18 04:31:39;;;;;;;2.85;2.00;;;;;;;21.29;40.41;95255.38;5065845;28;20028;-54
2021/12/18 04:34:04;;;;;;;3.40;2.10;;;;;;;21.28;40.23;95254.63;5065485;28;20044;-53
2021/12/18 04:36:30;;;;;;;3.20;2.17;;;;;;;21.24;40.46;95254.13;5065313;28;20111;-54
2021/12/18 04:38:56;;;;;;;2.80;2.10;;;;;;;21.27;40.42;95264.03;5064351;28;20029;-53
2021/12/18 04:41:36;;;;;;;3.08;2.03;;;;;;;21.27;40.47;95269.47;5065445;28;20479;-53
2021/12/18 04:44:01;;;;;;;;;;;;;;;21.30;40.28;95273.16;5065615;28;20025;-54
2021/12/18 04:46:27;;;;;;;3.10;2.13;;;;;;;21.26;40.48;95273.41;5065444;28;19923;-54
2021/12/18 04:48:52;;;;;;;2.63;1.70;;;;;;;21.25;40.34;95271.91;5065880;28;20024;-53
2021/12/18 04:51:17;;;;;;;2.92;2.10;;;;;;;21.25;40.24;95274.63;5065167;28;20037;-55
2021/12/18 04:53:43;;;;;;;2.58;1.95;;;;;;;21.25;40.30;95282.75;5065269;28;20113;-54
2021/12/18 04:56:08;;;;;;;2.97;1.75;;;;;;;21.20;40.28;95275.34;5065222;28;20468;-53
2021/12/18 04:58:34;;;;;;;2.95;2.03;;;;;;;21.23;40.33;95284.50;5064905;28;20028;-54
2021/12/18 05:00:59;;;;;;;2.38;1.92;;;;;;;21.23;40.47;95284.50;5065401;28;20063;-53
2021/12/18 05:03:25;;;;;;;3.58;2.47;;;;;;;21.22;40.47;95294.59;5065125;28;20040;-53
2021/12/18 05:05:50;;;;;;;3.03;2.33;;;;;;;21.22;40.38;95300.03;5065175;28;20039;-55
2021/12/18 05:08:16;;;;;;;2.92;1.92;;;;;;;21.22;40.20;95300.03;5064663;28;20036;-54
2021/12/18 05:10:41;;;;;;;2.70;2.15;;;;;;;21.21;40.33;95304.00;5064939;28;20036;-54
2021/12/18 05:13:06;;;;;;;3.08;2.20;;;;;;;21.20;40.26;95307.94;5064748;28;20078;-54
2021/12/18 05:15:32;;;;;;;2.95;2.00;;;;;;;21.17;40.53;95308.91;5080523;28;20047;-55
2021/12/18 05:17:58;;;;;;;2.92;2.10;;;;;;;21.19;40.40;95311.88;5064745;28;20052;-53
2021/12/18 05:20:23;;;;;;;3.40;2.03;;;;;;;21.18;40.38;95310.41;5064595;28;20024;-53
2021/12/18 05:22:49;;;;;;;3.03;2.00;;;;;;;21.19;40.32;95316.56;5064936;28;20032;-54
2021/12/18 05:25:14;;;;;;;2.35;2.03;;;;;;;21.18;40.23;95321.25;5064969;28;20021;-53
2021/12/18 05:27:39;;;;;;;2.72;1.95;;;;;;;21.18;40.32;95332.13;5065007;28;20028;-55
2021/12/18 05:30:06;;;;;;;3.42;2.00;;;;;;;21.17;40.34;95327.91;5064259;28;20453;-53
2021/12/18 05:32:32;;;;;;;2.45;1.90;;;;;;;21.17;40.21;95330.63;5063990;28;20033;-54
2021/12/18 05:34:57;;;;;;;2.75;2.10;;;;;;;21.15;40.18;95332.34;5064658;28;20040;-53
2021/12/18 05:39:51;;;;;;;2.80;2.00;;;;;;;21.14;40.45;95337.03;5064786;28;20098;-55
2021/12/18 05:42:16;;;;;;;2.95;2.08;;;;;;;21.14;40.29;95342.47;5064331;28;20036;-55
2021/12/18 05:44:42;;;;;;;2.90;2.00;;;;;;;21.14;40.49;95347.91;5064517;28;20052;-55
2021/12/18 05:47:07;;;;;;;2.63;2.03;;;;;;;21.14;40.25;95337.03;5065012;28;20040;-55
2021/12/18 05:49:33;;;;;;;2.92;2.00;;;;;;;21.13;40.47;95340.97;5064527;28;20032;-54
2021/12/18 05:51:58;;;;;;;3.42;2.20;;;;;;;21.13;40.30;95346.41;5064788;28;20047;-53
2021/12/18 05:54:23;;;;;;;3.10;2.10;;;;;;;21.13;40.28;95345.66;5064500;28;20024;-55
2021/12/18 05:56:49;;;;;;;2.70;2.05;;;;;;;21.13;40.25;95354.56;5080141;28;20028;-54
2021/12/18 05:59:14;;;;;;;3.25;2.13;;;;;;;21.12;40.26;95346.88;5063702;28;20429;-55
2021/12/18 06:01:41;;;;;;;2.88;2.10;;;;;;;21.10;40.53;95347.38;5063269;28;20032;-56
2021/12/18 06:04:07;;;;;;;2.75;2.00;;;;;;;21.11;40.33;95348.88;5063172;28;20036;-53
2021/12/18 06:06:33;;;;;;;2.70;2.03;;;;;;;21.09;40.23;95353.28;5063202;28;20055;-53
2021/12/18 06:08:58;;;;;;;2.70;1.95;;;;;;;21.10;40.26;95352.81;5063167;28;20037;-54
2021/12/18 06:11:27;;;;;;;3.35;2.53;;;;;;;21.11;40.43;95359.72;5062697;28;20024;-55
2021/12/18 06:13:52;;;;;;;3.22;1.83;;;;;;;21.10;40.28;95369.09;5064438;28;20032;-54
2021/12/18 06:16:18;;;;;;;3.10;1.80;;;;;;;21.08;40.47;95360.72;5053841;28;20039;-55
2021/12/18 06:18:44;;;;;;;2.70;2.03;;;;;;;21.10;40.30;95374.53;5043490;28;20040;-54
2021/12/18 06:21:13;;;;;;;3.30;2.00;;;;;;;21.13;40.30;95379.00;5063985;28;20419;-54
2021/12/18 06:23:40;;;;;;;3.45;1.90;;;;;;;21.22;40.09;95381.50;5055569;28;20029;-55
2021/12/18 06:26:05;;;;;;;2.70;1.75;;;;;;;21.29;40.29;95391.94;5063761;28;20103;-56
2021/12/18 06:28:31;;;;;;;2.50;1.85;;;;;;;21.35;40.27;95391.97;5046873;28;20028;-55
2021/12/18 06:30:59;;;;;;;3.08;1.85;;;;;;;21.40;40.32;95389.25;5042931;28;20052;-53
2021/12/18 06:33:24;;;;;;;3.28;1.90;;;;;;;21.42;40.20;95389.53;5046219;28;20495;-55
2021/12/18 06:35:50;;;;;;;2.63;1.90;;;;;;;21.48;39.93;95393.06;5042492;28;20040;-55
2021/12/18 06:38:15;;;;;;;2.67;1.95;;;;;;;21.50;39.97;95398.72;5044338;28;21437;-54
2021/12/18 06:40:41;;;;;;;2.65;1.95;;;;;;;21.57;39.91;95399.00;5042750;28;20551;-53
2021/12/18 06:43:06;;;;;;;2.63;2.00;;;;;;;21.67;39.86;95403.03;5042021;28;20036;-54
2021/12/18 06:45:32;;;;;;;2.85;1.70;;;;;;;21.77;39.71;95403.53;5042850;28;20079;-53
2021/12/18 06:47:57;;;;;;;3.00;2.00;;;;;;;21.90;39.63;95409.25;5042212;28;20025;-53
2021/12/18 06:50:23;;;;;;;2.15;1.85;;;;;;;22.02;39.46;95406.81;5044564;28;20029;-54
2021/12/18 06:52:48;;;;;;;2.60;1.90;;;;;;;22.12;39.37;95408.09;5042341;28;20048;-53
2021/12/18 06:55:14;;;;;;;2.13;1.88;;;;;;;22.23;39.01;95410.88;5042066;28;20028;-54
2021/12/18 06:57:39;;;;;;;3.53;2.28;;;;;;;22.29;38.51;95411.63;5042269;28;20028;-54
2021/12/18 07:00:07;;;;;;;4.60;2.35;;;;;;;22.41;38.58;95418.56;5057626;28;20032;-54
2021/12/18 07:02:32;;;;;;;3.08;1.95;;;;;;;22.50;38.49;95426.50;5042732;28;20166;-56
2021/12/18 07:04:58;;;;;;;2.60;1.92;;;;;;;22.61;38.18;95431.94;5042570;28;20116;-52
2021/12/18 07:07:23;;;;;;;2.03;1.80;;;;;;;22.72;38.06;95429.22;5042315;28;20422;-54
2021/12/18 07:09:48;;;;;;;2.65;1.88;;;;;;;22.81;37.91;95434.41;5041083;28;20033;-53
2021/12/18 07:12:14;;;;;;;3.05;2.10;;;;;;;22.92;37.85;95433.19;5044100;28;20115;-53
2021/12/18 07:14:39;;;;;;;2.65;1.85;;;;;;;23.06;37.53;95432.22;5050042;28;20051;-55
2021/12/18 07:17:05;;;;;;;2.70;2.30;;;;;;;23.22;37.30;95425.25;5067450;28;20020;-53
2021/12/18 07:19:30;;;;;;;1.95;1.67;;;;;;;23.33;37.25;95425.25;5067085;28;20032;-53
2021/12/18 07:21:56;;;;;;;2.78;1.80;;;;;;;23.44;37.17;95431.41;5067211;28;20036;-53
2021/12/18 07:24:21;;;;;;;2.50;1.80;;;;;;;23.61;36.99;95434.84;5066630;28;20036;-52
2021/12/18 07:26:47;;;;;;;2.17;1.80;;;;;;;23.74;36.77;95435.06;5067192;28;20024;-53
2021/12/18 07:29:12;;;;;;;2.75;1.88;;;;;;;23.84;36.34;95436.25;5065668;28;20044;-53
2021/12/18 07:31:37;;;;;;;2.17;1.80;;;;;;;23.98;36.13;95442.16;5066971;28;20047;-52
2021/12/18 07:34:03;;;;;;;2.58;1.75;;;;;;;24.10;36.26;95438.13;5066818;28;20033;-53
2021/12/18 07:36:28;;;;;;;2.53;1.80;;;;;;;24.17;35.73;95437.59;5066717;28;20024;-59
2021/12/18 07:38:54;;;;;;;3.25;2.25;;;;;;;24.29;36.01;95439.03;5052385;28;20035;-52
2021/12/18 07:41:19;;;;;;;7.18;4.47;;;;;;;24.40;35.53;95433.53;5066975;28;20033;-53
2021/12/18 07:43:44;;;;;;;8.50;6.25;;;;;;;24.49;35.68;95435.97;5066679;28;20029;-53
2021/12/18 07:46:10;;;;;;;10.05;6.22;;;;;;;24.61;35.71;95454.50;5065431;28;20202;-53
2021/12/18 07:48:35;;;;;;;11.90;6.60;;;;;;;24.68;35.63;95453.19;5066314;28;20040;-54
2021/12/18 07:51:01;;;;;;;8.90;6.00;;;;;;;24.77;35.07;95456.38;5066010;28;20025;-57
2021/12/18 07:53:26;;;;;;;8.05;5.30;;;;;;;24.82;35.03;95459.03;5066831;28;20029;-53
2021/12/18 07:55:52;;;;;;;9.32;6.22;;;;;;;24.55;31.23;95459.25;5066137;28;20032;-52
2021/12/18 07:58:17;;;;;;;9.93;5.68;;;;;;;24.56;33.04;95463.47;5063799;28;20024;-56
2021/12/18 08:00:43;;;;;;;6.95;4.68;;;;;;;24.65;34.26;95476.06;5049063;28;20036;-56
2021/12/18 08:03:08;;;;;;;9.18;4.55;;;;;;;24.78;34.78;95478.97;5060197;28;20745;-53
2021/12/18 08:05:34;;;;;;;7.88;4.55;;;;;;;24.91;34.32;95477.84;5062525;28;20028;-53
2021/12/18 08:07:59;;;;;;;7.93;4.38;;;;;;;25.00;34.38;95485.03;5051196;28;20017;-52
2021/12/18 08:10:24;;;;;;;6.68;4.35;;;;;;;25.08;34.55;95489.47;5047247;28;20029;-52
2021/12/18 08:12:50;;;;;;;6.82;4.28;;;;;;;25.14;34.83;95483.94;5064567;28;20032;-53
2021/12/18 08:15:15;;;;;;;7.00;4.15;;;;;;;25.21;34.43;95483.38;5066252;28;20033;-53
2021/12/18 08:17:41;;;;;;;6.43;4.00;;;;;;;25.29;34.65;95495.22;5065781;28;20106;-55
2021/12/18 08:20:07;;;;;;;6.28;4.05;;;;;;;25.34;34.53;95487.00;5064514;28;20047;-52
2021/12/18 08:22:32;;;;;;;7.13;4.63;;;;;;;25.38;34.43;95481.97;5065692;28;20037;-55
2021/12/18 08:24:58;;;;;;;5.53;3.40;;;;;;;25.46;34.24;95482.91;5065905;28;20031;-52
2021/12/18 08:27:23;;;;;;;5.75;3.58;;;;;;;25.47;34.06;95489.84;5065742;28;20120;-53
2021/12/18 08:29:49;;;;;;;5.25;3.72;;;;;;;25.50;34.38;95491.56;5066050;28;20035;-54
2021/12/18 08:32:14;;;;;;;5.53;3.58;;;;;;;25.55;34.30;95496.25;5064529;28;20491;-53
2021/12/18 08:34:40;;;;;;;5.32;3.55;;;;;;;25.63;34.28;95497.16;5065818;28;20608;-54
2021/12/18 08:37:05;;;;;;;6.03;3.30;;;;;;;25.71;33.89;95509.03;5065662;28;20028;-52
2021/12/18 08:39:31;;;;;;;4.80;3.10;;;;;;;25.71;34.26;95495.34;5064615;28;20042;-54
2021/12/18 08:41:58;;;;;;;6.60;3.88;;;;;;;25.79;34.01;95499.03;5065255;28;20442;-52
2021/12/18 08:44:24;;;;;;;5.13;3.42;;;;;;;25.83;34.07;95500.94;5063715;28;20085;-53
2021/12/18 08:46:49;;;;;;;5.13;3.40;;;;;;;25.85;33.54;95498.44;5066643;28;20036;-55
2021/12/18 08:49:15;;;;;;;5.05;3.25;;;;;;;25.90;33.84;95489.44;5065608;28;20086;-52
2021/12/18 08:51:41;;;;;;;4.88;2.80;;;;;;;25.94;33.63;95495.34;5066249;28;20098;-53
2021/12/18 08:54:06;;;;;;;4.70;3.15;;;;;;;25.98;33.69;95490.34;5065794;28;20028;-53
2021/12/18 08:56:32;;;;;;;4.68;3.30;;;;;;;26.01;33.63;95483.84;5065227;28;20059;-52
2021/12/18 08:58:58;;;;;;;4.90;3.30;;;;;;;26.02;33.69;95490.81;5056966;28;20040;-52
2021/12/18 09:01:26;;;;;;;5.35;3.25;;;;;;;26.02;33.82;95496.28;5046137;28;20105;-54
2021/12/18 09:03:51;;;;;;;4.72;3.13;;;;;;;26.02;33.69;95485.31;5045282;28;20037;-55
2021/12/18 09:06:17;;;;;;;4.40;2.83;;;;;;;25.98;33.90;95495.09;5045874;28;20078;-55
2021/12/18 09:08:42;;;;;;;4.28;3.20;;;;;;;25.94;33.99;95492.63;5054914;28;20032;-53
2021/12/18 09:11:08;;;;;;;4.57;2.95;;;;;;;25.89;33.98;95487.22;5066404;28;20028;-57
2021/12/18 09:13:33;;;;;;;4.97;3.13;;;;;;;25.96;33.85;95481.16;5065691;28;20479;-53
2021/12/18 09:15:58;;;;;;;4.65;3.47;;;;;;;26.02;33.76;95490.03;5068199;28;20043;-54
2021/12/18 09:18:24;;;;;;;5.05;2.75;;;;;;;26.05;33.66;95489.78;5067230;28;20028;-52
2021/12/18 09:20:49;;;;;;;5.53;3.20;;;;;;;26.10;33.70;95480.75;5067069;28;20036;-55
2021/12/18 09:23:17;;;;;;;4.30;3.08;;;;;;;26.12;33.48;95489.19;5066432;28;20052;-55
2021/12/18 09:25:43;;;;;;;5.50;2.97;;;;;;;26.16;33.32;95478.69;5065265;28;20845;-54
2021/12/18 09:28:08;;;;;;;5.28;2.83;;;;;;;26.18;33.48;95478.16;5052741;28;20041;-54
2021/12/18 09:30:34;;;;;;;3.88;2.55;;;;;;;26.21;33.44;95480.59;5048020;28;20055;-55
2021/12/18 09:32:59;;;;;;;4.03;2.88;;;;;;;26.18;33.46;95481.63;5064727;28;20048;-54
2021/12/18 09:35:25;;;;;;;4.68;2.75;;;;;;;26.20;33.60;95494.81;5064948;28;20032;-53
2021/12/18 09:37:52;;;;;;;5.22;3.20;;;;;;;26.21;33.65;95486.06;5065395;28;20112;-54
2021/12/18 09:40:19;;;;;;;4.57;2.92;;;;;;;26.27;33.38;95477.81;5065662;28;20120;-54
2021/12/18 09:42:44;;;;;;;4.80;2.65;;;;;;;26.16;33.56;95478.69;5055127;28;20071;-53
2021/12/18 09:45:10;;;;;;;4.10;2.67;;;;;;;26.30;33.51;95483.00;5060770;28;20060;-54
2021/12/18 09:47:36;;;;;;;4.32;2.70;;;;;;;26.30;33.05;95480.28;5062707;28;20060;-53
2021/12/18 09:50:01;;;;;;;4.35;3.28;;;;;;;26.18;31.85;95484.38;5041377;28;20029;-56
2021/12/18 09:52:27;;;;;;;4.57;2.80;;;;;;;26.24;32.70;95474.09;5064402;28;20048;-56
2021/12/18 09:54:56;;;;;;;3.60;2.70;;;;;;;26.27;33.10;95479.28;5063213;28;20476;-53
2021/12/18 09:57:22;;;;;;;4.50;2.85;;;;;;;26.25;33.13;95475.59;5064595;28;20032;-57
2021/12/18 09:59:47;;;;;;;4.20;3.00;;;;;;;26.35;33.03;95479.44;5062837;28;20047;-54
2021/12/18 10:02:13;;;;;;;4.25;2.70;;;;;;;26.35;32.60;95480.22;5062965;28;20032;-56
2021/12/18 10:04:39;;;;;;;4.85;2.92;;;;;;;26.32;33.03;95470.28;5063068;28;20024;-53
2021/12/18 10:07:21;;;;;;;5.18;2.80;;;;;;;26.42;32.61;95468.66;5062680;28;20021;-55
2021/12/18 10:09:48;;;;;;;5.15;3.25;;;;;;;26.37;32.84;95471.47;5063682;28;20486;-57
2021/12/18 10:12:15;;;;;;;4.10;2.90;;;;;;;26.40;32.96;95464.97;5058655;28;20025;-51
2021/12/18 10:14:43;;;;;;;6.15;2.90;;;;;;;26.45;33.18;95469.63;5063228;28;20146;-52
2021/12/18 10:17:39;;;;;;;6.13;2.90;;;;;;;26.50;32.99;95458.59;5052506;28;20051;-56
2021/12/18 10:20:10;;;;;;;5.70;2.90;;;;;;;26.46;32.99;95462.88;5054090;28;20720;-53
2021/12/18 10:22:36;;;;;;;4.50;2.97;;;;;;;26.36;32.96;95451.53;5065058;28;20044;-56
2021/12/18 10:25:07;;;;;;;6.05;3.05;;;;;;;26.31;33.26;95462.59;5065435;28;20040;-60
2021/12/18 10:27:32;;;;;;;4.72;3.08;;;;;;;26.20;33.26;95456.47;5065109;28;20354;-55
2021/12/18 10:30:16;;;;;;;4.82;2.80;;;;;;;26.16;33.45;95451.31;5064100;28;20517;-54
2021/12/18 10:32:45;;;;;;;5.68;2.90;;;;;;;25.99;33.53;95453.50;5062745;28;20093;-53
2021/12/18 10:35:10;;;;;;;4.10;2.70;;;;;;;25.87;33.68;95452.16;5062554;28;20116;-53
2021/12/18 10:37:36;;;;;;;5.22;2.85;;;;;;;25.78;33.69;95459.22;5064304;28;20032;-52
2021/12/18 10:40:08;;;;;;;4.13;2.95;;;;;;;25.67;33.76;95451.88;5063887;28;20037;-54
2021/12/18 10:42:34;;;;;;;5.13;2.70;;;;;;;25.58;34.00;95446.00;5063440;28;20090;-55
2021/12/18 10:45:10;;;;;;;5.88;2.92;;;;;;;25.47;34.19;95443.34;5063846;28;20044;-54
2021/12/18 10:48:03;;;;;;;5.10;2.72;;;;;;;25.44;34.42;95436.16;5067597;28;20036;-53
2021/12/18 10:50:46;;;;;;;4.13;2.60;;;;;;;25.31;34.25;95444.28;5067147;28;20043;-55
2021/12/18 10:53:30;;;;;;;4.47;2.80;;;;;;;25.22;34.70;95430.19;5067924;28;20040;-56
2021/12/18 10:56:00;;;;;;;3.75;2.70;;;;;;;25.06;34.58;95412.69;5067866;28;20520;-54
2021/12/18 10:58:33;;;;;;;3.60;2.80;;;;;;;25.03;35.09;95416.44;5067461;28;20093;-55
2021/12/18 11:01:04;;;;;;;4.50;2.67;;;;;;;25.03;35.31;95424.63;5067883;28;20056;-54
2021/12/18 11:03:46;;;;;;;5.35;2.70;;;;;;;24.97;35.25;95421.19;5067767;28;20040;-53
2021/12/18 11:06:24;;;;;;;5.20;2.40;;;;;;;24.93;35.17;95431.66;5067546;28;20024;-53
2021/12/18 11:09:06;;;;;;;4.40;2.80;;;;;;;24.83;35.13;95425.03;5066980;28;20029;-53
2021/12/18 11:14:11;;;;;;;4.65;2.72;;;;;;;24.67;35.77;95435.34;5067313;28;20418;-53
2021/12/18 11:16:37;;;;;;;4.93;3.05;;;;;;;24.56;35.93;95432.69;5067266;28;20036;-52
2021/12/18 11:19:07;;;;;;;4.68;2.58;;;;;;;24.53;36.11;95431.72;5066751;28;20035;-52
2021/12/18 11:21:33;;;;;;;;;;;;;;;24.57;35.68;95434.16;5067815;28;20119;-53
2021/12/18 11:24:04;;;;;;;4.03;2.65;;;;;;;24.46;35.78;95436.97;5067113;28;20004;-53
2021/12/18 11:26:41;;;;;;;3.60;2.28;;;;;;;24.42;36.30;95425.56;5067096;28;20441;-53
2021/12/18 11:29:06;;;;;;;4.78;2.63;;;;;;;24.36;36.24;95427.59;5067114;28;20402;-53
2021/12/18 11:31:32;;;;;;;4.90;2.70;;;;;;;24.33;36.12;95423.13;5065526;28;20029;-55
2021/12/18 11:33:57;;;;;;;3.47;2.40;;;;;;;24.28;36.49;95432.09;5066994;28;20410;-53
2021/12/18 11:36:23;;;;;;;4.45;2.80;;;;;;;24.24;35.95;95426.13;5066920;28;20434;-52
2021/12/18 11:38:48;;;;;;;4.45;2.90;;;;;;;24.23;36.28;95424.69;5066680;28;20082;-53
2021/12/18 11:41:17;;;;;;;4.03;2.25;;;;;;;24.18;36.09;95428.16;5045737;28;20033;-53
2021/12/18 11:43:46;;;;;;;4.75;2.80;;;;;;;24.14;36.53;95419.50;5055701;28;20028;-53
2021/12/18 11:46:31;;;;;;;4.30;2.58;;;;;;;24.14;36.26;95426.94;5065372;28;20102;-52
2021/12/18 11:49:07;;;;;;;5.03;2.60;;;;;;;24.10;36.16;95429.22;5066433;28;20506;-52
2021/12/18 11:51:32;;;;;;;4.10;2.63;;;;;;;24.03;36.72;95433.19;5066307;28;20119;-53
2021/12/18 11:53:58;;;;;;;3.22;2.17;;;;;;;24.02;36.17;95426.28;5066598;28;20617;-53
2021/12/18 11:56:24;;;;;;;3.78;2.55;;;;;;;23.99;36.49;95432.72;5066733;28;20067;-52
2021/12/18 11:58:49;;;;;;;3.78;2.40;;;;;;;23.91;36.70;95429.03;5081350;28;20032;-54
2021/12/18 12:01:25;;;;;;;5.18;2.60;;;;;;;23.96;36.42;95436.47;5065366;28;20024;-54
2021/12/18 12:03:51;;;;;;;3.35;2.30;;;;;;;23.91;36.38;95437.22;5065541;28;20032;-55
2021/12/18 12:06:24;;;;;;;5.03;2.63;;;;;;;23.91;36.72;95437.22;5065579;28;20541;-54
2021/12/18 12:09:09;;;;;;;3.03;2.17;;;;;;;23.87;36.70;95425.84;5065436;28;20046;-52
2021/12/18 12:11:56;;;;;;;3.83;2.42;;;;;;;23.86;37.04;95428.34;5065812;28;20416;-52
2021/12/18 12:14:23;;;;;;;3.10;2.35;;;;;;;23.82;36.58;95433.31;5065223;28;20043;-54
2021/12/18 12:16:49;;;;;;;4.00;2.25;;;;;;;23.81;37.01;95437.25;5066631;28;20033;-57
2021/12/18 12:19:21;;;;;;;3.45;2.05;;;;;;;23.83;36.52;95440.25;5065196;28;20417;-54
2021/12/18 12:21:51;;;;;;;30.38;4.53;;;;;;;23.73;35.64;95436.31;5047452;28;20491;-54
2021/12/18 12:24:17;;;;;;;16.20;3.70;;;;;;;23.71;36.72;95436.06;5060364;28;20059;-51
2021/12/18 12:26:43;;;;;;;18.20;3.10;;;;;;;23.68;36.92;95434.34;5048271;28;20029;-52
2021/12/18 12:29:09;;;;;;;8.43;2.70;;;;;;;23.66;37.10;95436.81;5065218;28;20101;-55